createdAt,value
2022-10-17T00:00:06.426Z,100550
2022-10-17T00:02:04.966Z,100550
2022-10-17T00:04:04.937Z,100540
2022-10-17T00:06:07.759Z,100540
2022-10-17T00:08:05.254Z,100540
2022-10-17T00:10:05.871Z,100540
2022-10-17T00:12:05.407Z,100540
2022-10-17T00:14:05.330Z,100540
2022-10-17T00:16:06.484Z,100540
2022-10-17T00:18:05.213Z,100540
2022-10-17T00:20:06.301Z,100540
2022-10-17T00:22:05.190Z,100540
2022-10-17T00:24:05.869Z,100540
2022-10-17T00:26:05.483Z,100540
2022-10-17T00:28:08.361Z,100540
2022-10-17T00:30:07.730Z,100530
2022-10-17T00:32:05.567Z,100540
2022-10-17T00:34:05.350Z,100540
2022-10-17T00:36:08.898Z,100540
2022-10-17T00:38:05.374Z,100540
2022-10-17T00:40:07.677Z,100540
2022-10-17T00:42:06.108Z,100540
2022-10-17T00:44:21.884Z,100530
2022-10-17T00:46:06.885Z,100530
2022-10-17T00:48:08.897Z,100520
2022-10-17T00:50:07.099Z,100520
2022-10-17T00:52:09.031Z,100520
2022-10-17T00:54:08.067Z,100510
2022-10-17T00:56:06.354Z,100510
2022-10-17T00:58:06.233Z,100510
2022-10-17T01:00:09.559Z,100510
2022-10-17T01:02:10.061Z,100510
2022-10-17T01:04:05.841Z,100500
2022-10-17T01:06:05.799Z,100500
2022-10-17T01:08:07.123Z,100500
2022-10-17T01:10:07.746Z,100490
2022-10-17T01:12:19.673Z,100480
2022-10-17T01:14:14.973Z,100480
2022-10-17T01:16:13.521Z,100480
2022-10-17T01:18:16.709Z,100480
2022-10-17T01:20:29.101Z,100480
2022-10-17T01:22:10.509Z,100480
2022-10-17T01:24:35.550Z,100470
2022-10-17T01:26:19.108Z,100460
2022-10-17T01:28:21.879Z,100450
2022-10-17T01:30:35.519Z,100450
2022-10-17T01:32:13.879Z,100450
2022-10-17T01:34:13.862Z,100440
2022-10-17T01:36:11.824Z,100440
2022-10-17T01:38:10.920Z,100440
2022-10-17T01:40:11.891Z,100440
2022-10-17T01:42:12.742Z,100440
2022-10-17T01:44:11.927Z,100430
2022-10-17T01:46:13.113Z,100430
2022-10-17T01:48:15.435Z,100420
2022-10-17T01:50:11.523Z,100420
2022-10-17T01:52:11.247Z,100420
2022-10-17T01:54:11.362Z,100420
2022-10-17T01:56:10.636Z,100420
2022-10-17T01:58:09.974Z,100410
2022-10-17T02:00:13.873Z,100410
2022-10-17T02:02:08.365Z,100400
2022-10-17T02:04:09.031Z,100400
2022-10-17T02:06:08.591Z,100400
2022-10-17T02:08:07.154Z,100400
2022-10-17T02:10:15.619Z,100400
2022-10-17T02:12:24.961Z,100400
2022-10-17T02:14:19.282Z,100390
2022-10-17T02:16:17.944Z,100390
2022-10-17T02:18:20.444Z,100380
2022-10-17T02:20:16.209Z,100380
2022-10-17T02:22:19.154Z,100380
2022-10-17T02:24:17.101Z,100370
2022-10-17T02:26:11.378Z,100370
2022-10-17T02:28:19.557Z,100370
2022-10-17T02:30:11.845Z,100370
2022-10-17T02:32:11.886Z,100360
2022-10-17T02:34:12.523Z,100360
2022-10-17T02:36:12.596Z,100360
2022-10-17T02:38:10.037Z,100360
2022-10-17T02:40:11.445Z,100360
2022-10-17T02:42:10.584Z,100360
2022-10-17T02:44:08.825Z,100360
2022-10-17T02:46:07.379Z,100360
2022-10-17T02:48:14.046Z,100360
2022-10-17T02:50:10.767Z,100350
2022-10-17T02:52:12.526Z,100350
2022-10-17T02:54:13.807Z,100350
2022-10-17T02:56:15.828Z,100340
2022-10-17T02:58:14.479Z,100340
2022-10-17T03:00:11.624Z,100340
2022-10-17T03:02:07.308Z,100340
2022-10-17T03:04:09.543Z,100340
2022-10-17T03:06:07.390Z,100330
2022-10-17T03:08:07.452Z,100320
2022-10-17T03:10:07.761Z,100320
2022-10-17T03:12:07.789Z,100320
2022-10-17T03:14:07.510Z,100330
2022-10-17T03:16:08.004Z,100320
2022-10-17T03:18:08.102Z,100320
2022-10-17T03:20:07.964Z,100320
2022-10-17T03:22:08.438Z,100320
2022-10-17T03:24:07.462Z,100310
2022-10-17T03:26:08.601Z,100310
2022-10-17T03:28:08.479Z,100310
2022-10-17T03:30:09.733Z,100290
2022-10-17T03:32:08.354Z,100290
2022-10-17T03:34:07.726Z,100290
2022-10-17T03:36:10.142Z,100290
2022-10-17T03:38:07.653Z,100290
2022-10-17T03:40:08.311Z,100290
2022-10-17T03:42:07.921Z,100290
2022-10-17T03:44:07.766Z,100290
2022-10-17T03:46:08.204Z,100290
2022-10-17T03:48:07.780Z,100290
2022-10-17T03:50:09.763Z,100290
2022-10-17T03:52:10.905Z,100280
2022-10-17T03:54:08.134Z,100280
2022-10-17T03:56:10.718Z,100280
2022-10-17T03:58:07.832Z,100280
2022-10-17T04:00:14.601Z,100280
2022-10-17T04:02:07.964Z,100280
2022-10-17T04:04:08.836Z,100280
2022-10-17T04:06:11.928Z,100270
2022-10-17T04:08:23.858Z,100270
2022-10-17T04:10:09.037Z,100270
2022-10-17T04:12:09.192Z,100260
2022-10-17T04:14:10.539Z,100250
2022-10-17T04:16:14.951Z,100250
2022-10-17T04:18:08.325Z,100250
2022-10-17T04:20:08.819Z,100250
2022-10-17T04:22:10.034Z,100250
2022-10-17T04:24:18.789Z,100250
2022-10-17T04:26:08.204Z,100250
2022-10-17T04:28:08.324Z,100250
2022-10-17T04:30:09.028Z,100250
2022-10-17T04:32:14.014Z,100250
2022-10-17T04:34:08.375Z,100250
2022-10-17T04:36:14.022Z,100250
2022-10-17T04:38:08.345Z,100250
2022-10-17T04:40:09.873Z,100250
2022-10-17T04:42:08.505Z,100250
2022-10-17T04:44:11.772Z,100250
2022-10-17T04:46:12.541Z,100250
2022-10-17T04:48:09.159Z,100250
2022-10-17T04:50:10.072Z,100250
2022-10-17T04:52:17.771Z,100250
2022-10-17T04:54:10.276Z,100240
2022-10-17T04:56:10.126Z,100240
2022-10-17T04:58:08.977Z,100240
2022-10-17T05:00:25.508Z,100240
2022-10-17T05:02:10.728Z,100240
2022-10-17T05:04:09.251Z,100240
2022-10-17T05:06:10.991Z,100240
2022-10-17T05:08:10.422Z,100240
2022-10-17T05:10:09.633Z,100240
2022-10-17T05:12:10.421Z,100220
2022-10-17T05:14:09.098Z,100220
2022-10-17T05:16:09.599Z,100220
2022-10-17T05:18:09.491Z,100210
2022-10-17T05:20:11.174Z,100210
2022-10-17T05:22:09.404Z,100200
2022-10-17T05:24:12.777Z,100200
2022-10-17T05:26:10.998Z,100200
2022-10-17T05:28:09.650Z,100190
2022-10-17T05:30:10.873Z,100190
2022-10-17T05:32:09.463Z,100190
2022-10-17T05:34:11.606Z,100190
2022-10-17T05:36:10.240Z,100190
2022-10-17T05:38:09.807Z,100180
2022-10-17T05:40:10.404Z,100180
2022-10-17T05:42:09.803Z,100180
2022-10-17T05:44:15.452Z,100180
2022-10-17T05:46:10.336Z,100180
2022-10-17T05:48:09.626Z,100180
2022-10-17T05:50:22.933Z,100180
2022-10-17T05:52:18.052Z,100180
2022-10-17T05:54:09.982Z,100180
2022-10-17T05:56:11.972Z,100180
2022-10-17T05:58:21.734Z,100190
2022-10-17T06:00:21.819Z,100190
2022-10-17T06:02:12.343Z,100190
2022-10-17T06:04:11.239Z,100190
2022-10-17T06:06:15.228Z,100190
2022-10-17T06:08:10.523Z,100180
2022-10-17T06:10:10.868Z,100180
2022-10-17T06:12:10.159Z,100180
2022-10-17T06:14:11.791Z,100180
2022-10-17T06:16:10.419Z,100180
2022-10-17T06:18:11.100Z,100180
2022-10-17T06:20:11.041Z,100170
2022-10-17T06:22:10.831Z,100170
2022-10-17T06:24:13.640Z,100170
2022-10-17T06:26:10.959Z,100170
2022-10-17T06:28:10.941Z,100170
2022-10-17T06:30:10.668Z,100170
2022-10-17T06:32:14.121Z,100170
2022-10-17T06:34:12.464Z,100170
2022-10-17T06:36:13.823Z,100170
2022-10-17T06:38:11.140Z,100170
2022-10-17T06:40:13.145Z,100170
2022-10-17T06:42:20.276Z,100170
2022-10-17T06:44:26.463Z,100170
2022-10-17T06:46:15.042Z,100170
2022-10-17T06:48:16.958Z,100170
2022-10-17T06:50:17.664Z,100170
2022-10-17T06:52:20.552Z,100170
2022-10-17T06:54:26.291Z,100160
2022-10-17T06:56:27.520Z,100160
2022-10-17T06:58:17.686Z,100160
2022-10-17T07:00:17.646Z,100160
2022-10-17T07:02:11.852Z,100140
2022-10-17T07:04:11.734Z,100140
2022-10-17T07:06:13.669Z,100130
2022-10-17T07:08:12.626Z,100120
2022-10-17T07:10:13.498Z,100120
2022-10-17T07:12:16.304Z,100120
2022-10-17T07:14:12.103Z,100120
2022-10-17T07:16:14.065Z,100120
2022-10-17T07:18:13.317Z,100120
2022-10-17T07:20:12.667Z,100120
2022-10-17T07:22:14.769Z,100120
2022-10-17T07:24:15.076Z,100120
2022-10-17T07:26:16.241Z,100110
2022-10-17T07:28:14.201Z,100110
2022-10-17T07:30:14.422Z,100110
2022-10-17T07:32:17.497Z,100090
2022-10-17T07:34:12.792Z,100090
2022-10-17T07:36:13.879Z,100090
2022-10-17T07:38:13.093Z,100100
2022-10-17T07:40:12.963Z,100100
2022-10-17T07:42:13.117Z,100100
2022-10-17T07:44:17.877Z,100090
2022-10-17T07:46:13.290Z,100090
2022-10-17T07:48:13.288Z,100090
2022-10-17T07:50:13.247Z,100090
2022-10-17T07:52:14.375Z,100090
2022-10-17T07:54:13.469Z,100090
2022-10-17T07:56:13.738Z,100090
2022-10-17T07:58:14.340Z,100090
2022-10-17T08:00:14.809Z,100090
2022-10-17T08:02:21.511Z,100100
2022-10-17T08:04:13.763Z,100110
2022-10-17T08:06:14.453Z,100110
2022-10-17T08:08:14.008Z,100110
2022-10-17T08:10:15.333Z,100110
2022-10-17T08:12:14.416Z,100110
2022-10-17T08:14:14.319Z,100110
2022-10-17T08:16:14.148Z,100110
2022-10-17T08:18:14.502Z,100110
2022-10-17T08:20:14.376Z,100110
2022-10-17T08:22:14.442Z,100110
2022-10-17T08:24:14.403Z,100090
2022-10-17T08:26:14.769Z,100080
2022-10-17T08:28:14.801Z,100060
2022-10-17T08:30:15.131Z,100060
2022-10-17T08:32:14.735Z,100060
2022-10-17T08:34:15.051Z,100050
2022-10-17T08:36:16.582Z,100060
2022-10-17T08:38:16.011Z,100070
2022-10-17T08:40:20.257Z,100080
2022-10-17T08:42:33.915Z,100080
2022-10-17T08:44:24.573Z,100080
2022-10-17T08:48:18.146Z,100060
2022-10-17T08:50:34.595Z,100050
2022-10-17T08:52:21.827Z,100050
2022-10-17T08:54:19.776Z,100050
2022-10-17T08:56:19.936Z,100050
2022-10-17T08:58:21.002Z,100050
2022-10-17T09:00:18.387Z,100020
2022-10-17T09:02:32.781Z,100020
2022-10-17T09:04:37.846Z,100020
2022-10-17T09:06:24.429Z,100020
2022-10-17T09:08:29.467Z,100020
2022-10-17T09:10:24.767Z,100020
2022-10-17T09:12:20.302Z,100020
2022-10-17T09:14:29.933Z,100030
2022-10-17T09:16:39.902Z,100030
2022-10-17T09:18:22.173Z,100030
2022-10-17T09:20:19.809Z,100030
2022-10-17T09:22:19.739Z,100030
2022-10-17T09:24:24.170Z,100030
2022-10-17T09:26:15.890Z,100030
2022-10-17T09:28:20.976Z,100020
2022-10-17T09:30:44.124Z,100020
2022-10-17T09:32:22.167Z,100020
2022-10-17T09:34:16.397Z,100010
2022-10-17T09:36:19.899Z,100000
2022-10-17T09:38:18.355Z,100000
2022-10-17T09:40:23.394Z,100000
2022-10-17T09:42:22.416Z,99990
2022-10-17T09:44:19.888Z,99990
2022-10-17T09:46:24.969Z,99990
2022-10-17T09:48:23.136Z,99990
2022-10-17T09:50:23.016Z,99980
2022-10-17T09:52:20.804Z,99970
2022-10-17T09:54:22.454Z,99970
2022-10-17T09:56:18.822Z,99970
2022-10-17T09:58:16.629Z,99970
2022-10-17T10:00:22.170Z,99960
2022-10-17T10:02:20.538Z,99960
2022-10-17T10:04:17.244Z,99950
2022-10-17T10:06:18.468Z,99950
2022-10-17T10:08:19.001Z,99950
2022-10-17T10:10:27.750Z,99950
2022-10-17T10:12:19.960Z,99950
2022-10-17T10:14:22.094Z,99940
2022-10-17T10:16:21.045Z,99940
2022-10-17T10:18:34.517Z,99940
2022-10-17T10:20:29.136Z,99940
2022-10-17T10:22:19.829Z,99940
2022-10-17T10:24:17.560Z,99940
2022-10-17T10:26:22.297Z,99940
2022-10-17T10:28:17.875Z,99940
2022-10-17T10:30:20.693Z,99940
2022-10-17T10:32:21.638Z,99940
2022-10-17T10:34:21.577Z,99940
2022-10-17T10:36:18.268Z,99940
2022-10-17T10:38:20.262Z,99940
2022-10-17T10:40:22.235Z,99950
2022-10-17T10:42:22.315Z,99950
2022-10-17T10:44:23.032Z,99940
2022-10-17T10:46:20.927Z,99940
2022-10-17T10:48:21.658Z,99940
2022-10-17T10:50:27.414Z,99940
2022-10-17T10:52:29.829Z,99940
2022-10-17T10:54:24.022Z,99940
2022-10-17T10:56:22.244Z,99940
2022-10-17T10:58:38.945Z,99940
2022-10-17T11:00:23.981Z,99940
2022-10-17T11:02:27.633Z,99940
2022-10-17T11:04:27.158Z,99920
2022-10-17T11:06:26.700Z,99920
2022-10-17T11:08:28.063Z,99920
2022-10-17T11:10:27.584Z,99920
2022-10-17T11:12:24.459Z,99920
2022-10-17T11:14:39.009Z,99920
2022-10-17T11:16:29.934Z,99910
2022-10-17T11:18:25.935Z,99910
2022-10-17T11:20:28.941Z,99910
2022-10-17T11:22:29.230Z,99910
2022-10-17T11:24:24.339Z,99910
2022-10-17T11:26:25.275Z,99910
2022-10-17T11:28:22.956Z,99910
2022-10-17T11:30:26.287Z,99910
2022-10-17T11:32:27.700Z,99910
2022-10-17T11:34:25.375Z,99910
2022-10-17T11:36:26.685Z,99910
2022-10-17T11:38:39.267Z,99910
2022-10-17T11:40:29.048Z,99900
2022-10-17T11:42:27.133Z,99890
2022-10-17T11:44:28.583Z,99890
2022-10-17T11:46:24.704Z,99890
2022-10-17T11:48:28.293Z,99890
2022-10-17T11:52:54.943Z,99890
2022-10-17T11:54:28.126Z,99890
2022-10-17T11:56:31.889Z,99890
2022-10-17T11:58:31.968Z,99890
2022-10-17T12:00:32.648Z,99890
2022-10-17T12:02:32.572Z,99890
2022-10-17T12:04:38.942Z,99890
2022-10-17T12:06:38.801Z,99890
2022-10-17T12:08:31.330Z,99890
2022-10-17T12:10:34.379Z,99870
2022-10-17T12:12:26.039Z,99870
2022-10-17T12:14:40.411Z,99870
2022-10-17T12:16:43.287Z,99870
2022-10-17T12:18:25.714Z,99860
2022-10-17T12:20:29.065Z,99860
2022-10-17T12:22:26.045Z,99860
2022-10-17T12:24:33.941Z,99860
2022-10-17T12:26:26.663Z,99860
2022-10-17T12:28:29.439Z,99860
2022-10-17T12:30:26.961Z,99860
2022-10-17T12:32:30.217Z,99860
2022-10-17T12:34:25.202Z,99860
2022-10-17T12:36:38.136Z,99860
2022-10-17T12:38:26.901Z,99860
2022-10-17T12:40:54.865Z,99860
2022-10-17T12:42:31.951Z,99860
2022-10-17T12:44:40.389Z,99860
2022-10-17T12:46:43.071Z,99860
2022-10-17T12:48:55.249Z,99860
2022-10-17T12:50:56.540Z,99860
2022-10-17T12:52:47.843Z,99860
2022-10-17T12:54:26.224Z,99860
2022-10-17T12:56:37.741Z,99860
2022-10-17T12:58:27.670Z,99860
2022-10-17T13:00:34.187Z,99860
2022-10-17T13:02:29.106Z,99860
2022-10-17T13:04:29.405Z,99850
2022-10-17T13:06:29.122Z,99840
2022-10-17T13:08:29.857Z,99840
2022-10-17T13:10:29.244Z,99840
2022-10-17T13:12:27.853Z,99840
2022-10-17T13:14:29.460Z,99840
2022-10-17T13:16:29.183Z,99840
2022-10-17T13:18:29.290Z,99840
2022-10-17T13:20:31.767Z,99840
2022-10-17T13:22:31.010Z,99840
2022-10-17T13:24:30.751Z,99830
2022-10-17T13:26:28.406Z,99830
2022-10-17T13:28:28.424Z,99830
2022-10-17T13:30:32.234Z,99830
2022-10-17T13:32:36.055Z,99820
2022-10-17T13:34:29.324Z,99820
2022-10-17T13:36:30.603Z,99820
2022-10-17T13:38:31.582Z,99820
2022-10-17T13:40:44.655Z,99820
2022-10-17T13:42:31.350Z,99820
2022-10-17T13:44:35.184Z,99820
2022-10-17T13:46:39.251Z,99820
2022-10-17T13:48:32.669Z,99820
2022-10-17T13:50:44.271Z,99820
2022-10-17T13:52:30.487Z,99820
2022-10-17T13:54:34.569Z,99820
2022-10-17T13:56:30.433Z,99820
2022-10-17T13:58:31.828Z,99820
2022-10-17T14:00:30.269Z,99830
2022-10-17T14:02:32.180Z,99830
2022-10-17T14:04:39.987Z,99830
2022-10-17T14:06:31.241Z,99830
2022-10-17T14:08:32.652Z,99830
2022-10-17T14:10:33.512Z,99830
2022-10-17T14:12:31.588Z,99830
2022-10-17T14:14:41.678Z,99820
2022-10-17T14:16:40.927Z,99820
2022-10-17T14:18:36.382Z,99810
2022-10-17T14:21:08.213Z,99810
2022-10-17T14:22:35.721Z,99810
2022-10-17T14:24:35.064Z,99810
2022-10-17T14:26:31.399Z,99810
2022-10-17T14:28:31.603Z,99810
2022-10-17T14:30:55.266Z,99810
2022-10-17T14:34:35.055Z,99810
2022-10-17T14:36:36.063Z,99810
2022-10-17T14:38:32.086Z,99810
2022-10-17T14:40:34.127Z,99810
2022-10-17T14:42:37.804Z,99810
2022-10-17T14:44:34.601Z,99810
2022-10-17T14:46:34.270Z,99820
2022-10-17T14:48:33.095Z,99820
2022-10-17T14:50:32.866Z,99820
2022-10-17T14:52:33.578Z,99820
2022-10-17T14:54:35.491Z,99820
2022-10-17T14:56:36.877Z,99820
2022-10-17T14:58:33.391Z,99820
2022-10-17T15:00:32.857Z,99820
2022-10-17T15:02:33.430Z,99820
2022-10-17T15:04:33.028Z,99820
2022-10-17T15:06:34.194Z,99820
2022-10-17T15:08:33.402Z,99830
2022-10-17T15:10:35.688Z,99830
2022-10-17T15:12:33.534Z,99830
2022-10-17T15:14:33.556Z,99830
2022-10-17T15:16:34.501Z,99830
2022-10-17T15:18:33.609Z,99830
2022-10-17T15:20:34.306Z,99830
2022-10-17T15:22:33.867Z,99830
2022-10-17T15:24:33.906Z,99840
2022-10-17T15:26:34.957Z,99840
2022-10-17T15:28:34.107Z,99840
2022-10-17T15:30:35.707Z,99840
2022-10-17T15:32:34.343Z,99840
2022-10-17T15:34:34.407Z,99840
2022-10-17T15:36:39.075Z,99840
2022-10-17T15:38:34.525Z,99840
2022-10-17T15:40:34.625Z,99840
2022-10-17T15:42:34.978Z,99840
2022-10-17T15:44:34.861Z,99840
2022-10-17T15:46:35.394Z,99840
2022-10-17T15:48:35.101Z,99840
2022-10-17T15:50:35.192Z,99840
2022-10-17T15:52:35.170Z,99840
2022-10-17T15:54:35.287Z,99840
2022-10-17T15:56:38.008Z,99840
2022-10-17T15:58:39.258Z,99840
2022-10-17T16:00:35.537Z,99840
2022-10-17T16:02:35.699Z,99840
2022-10-17T16:04:35.650Z,99840
2022-10-17T16:06:35.766Z,99840
2022-10-17T16:08:35.844Z,99840
2022-10-17T16:10:38.891Z,99840
2022-10-17T16:12:36.019Z,99840
2022-10-17T16:14:36.319Z,99840
2022-10-17T16:16:36.226Z,99840
2022-10-17T16:18:37.685Z,99840
2022-10-17T16:20:37.642Z,99840
2022-10-17T16:22:37.894Z,99840
2022-10-17T16:24:36.523Z,99840
2022-10-17T16:26:36.586Z,99840
2022-10-17T16:28:36.646Z,99840
2022-10-17T16:30:42.066Z,99840
2022-10-17T16:32:36.869Z,99840
2022-10-17T16:34:37.017Z,99840
2022-10-17T16:36:37.008Z,99840
2022-10-17T16:38:37.026Z,99840
2022-10-17T16:40:38.169Z,99840
2022-10-17T16:42:37.733Z,99840
2022-10-17T16:44:37.339Z,99840
2022-10-17T16:46:37.495Z,99840
2022-10-17T16:48:37.510Z,99840
2022-10-17T16:50:39.318Z,99850
2022-10-17T16:52:37.620Z,99860
2022-10-17T16:54:37.743Z,99850
2022-10-17T16:56:37.755Z,99850
2022-10-17T16:58:38.236Z,99850
2022-10-17T17:00:38.934Z,99850
2022-10-17T17:02:38.088Z,99860
2022-10-17T17:04:38.221Z,99860
2022-10-17T17:06:38.185Z,99860
2022-10-17T17:08:38.399Z,99860
2022-10-17T17:10:43.858Z,99860
2022-10-17T17:12:38.385Z,99860
2022-10-17T17:14:38.644Z,99860
2022-10-17T17:16:38.518Z,99860
2022-10-17T17:18:39.275Z,99870
2022-10-17T17:20:38.671Z,99870
2022-10-17T17:22:38.741Z,99870
2022-10-17T17:24:38.992Z,99870
2022-10-17T17:26:38.914Z,99870
2022-10-17T17:28:40.115Z,99870
2022-10-17T17:30:39.165Z,99870
2022-10-17T17:32:39.440Z,99870
2022-10-17T17:34:39.395Z,99870
2022-10-17T17:36:39.859Z,99870
2022-10-17T17:38:39.490Z,99870
2022-10-17T17:40:48.273Z,99870
2022-10-17T17:42:40.095Z,99870
2022-10-17T17:44:39.844Z,99870
2022-10-17T17:46:39.941Z,99870
2022-10-17T17:48:41.560Z,99870
2022-10-17T17:50:41.956Z,99870
2022-10-17T17:52:40.179Z,99870
2022-10-17T17:54:41.101Z,99870
2022-10-17T17:56:40.479Z,99870
2022-10-17T17:58:41.357Z,99870
2022-10-17T18:00:40.933Z,99870
2022-10-17T18:02:42.260Z,99870
2022-10-17T18:04:40.738Z,99870
2022-10-17T18:06:40.946Z,99870
2022-10-17T18:08:43.995Z,99870
2022-10-17T18:10:45.818Z,99870
2022-10-17T18:12:41.283Z,99870
2022-10-17T18:14:41.299Z,99880
2022-10-17T18:16:41.331Z,99880
2022-10-17T18:18:43.046Z,99880
2022-10-17T18:20:42.272Z,99880
2022-10-17T18:22:41.592Z,99880
2022-10-17T18:24:41.841Z,99880
2022-10-17T18:26:41.706Z,99880
2022-10-17T18:28:43.746Z,99880
2022-10-17T18:30:41.920Z,99880
2022-10-17T18:32:42.027Z,99880
2022-10-17T18:34:42.289Z,99880
2022-10-17T18:36:42.210Z,99880
2022-10-17T18:38:42.434Z,99880
2022-10-17T18:40:44.138Z,99880
2022-10-17T18:42:42.833Z,99880
2022-10-17T18:44:42.730Z,99880
2022-10-17T18:46:42.815Z,99880
2022-10-17T18:48:44.406Z,99880
2022-10-17T18:50:42.888Z,99880
2022-10-17T18:52:43.100Z,99890
2022-10-17T18:54:43.272Z,99890
2022-10-17T18:56:43.306Z,99890
2022-10-17T18:58:43.627Z,99890
2022-10-17T19:00:43.603Z,99890
2022-10-17T19:02:43.964Z,99890
2022-10-17T19:04:43.736Z,99890
2022-10-17T19:06:44.237Z,99890
2022-10-17T19:08:44.885Z,99890
2022-10-17T19:10:44.058Z,99890
2022-10-17T19:12:44.508Z,99890
2022-10-17T19:14:44.713Z,99890
2022-10-17T19:16:46.293Z,99890
2022-10-17T19:18:49.338Z,99900
2022-10-17T19:20:44.655Z,99900
2022-10-17T19:22:44.861Z,99900
2022-10-17T19:24:44.934Z,99900
2022-10-17T19:26:46.317Z,99900
2022-10-17T19:28:45.397Z,99900
2022-10-17T19:30:45.242Z,99900
2022-10-17T19:32:45.687Z,99900
2022-10-17T19:34:45.523Z,99900
2022-10-17T19:36:46.114Z,99910
2022-10-17T19:38:45.844Z,99900
2022-10-17T19:40:45.839Z,99910
2022-10-17T19:42:46.160Z,99910
2022-10-17T19:44:46.047Z,99910
2022-10-17T19:46:46.264Z,99910
2022-10-17T19:48:47.641Z,99910
2022-10-17T19:50:46.430Z,99910
2022-10-17T19:52:46.549Z,99910
2022-10-17T19:54:46.765Z,99910
2022-10-17T19:56:47.714Z,99910
2022-10-17T19:58:48.217Z,99910
2022-10-17T20:00:47.399Z,99910
2022-10-17T20:02:47.317Z,99910
2022-10-17T20:04:54.662Z,99910
2022-10-17T20:06:47.366Z,99910
2022-10-17T20:08:48.045Z,99910
2022-10-17T20:10:47.521Z,99910
2022-10-17T20:12:47.665Z,99910
2022-10-17T20:14:47.684Z,99910
2022-10-17T20:16:51.513Z,99910
2022-10-17T20:18:48.534Z,99910
2022-10-17T20:20:48.522Z,99910
2022-10-17T20:22:48.157Z,99910
2022-10-17T20:24:48.315Z,99910
2022-10-17T20:26:48.442Z,99910
2022-10-17T20:28:49.457Z,99910
2022-10-17T20:30:48.568Z,99910
2022-10-17T20:32:48.788Z,99910
2022-10-17T20:34:48.853Z,99910
2022-10-17T20:36:53.418Z,99910
2022-10-17T20:38:54.540Z,99910
2022-10-17T20:40:49.161Z,99910
2022-10-17T20:42:49.331Z,99910
2022-10-17T20:44:49.351Z,99910
2022-10-17T20:47:01.309Z,99910
2022-10-17T20:48:51.191Z,99910
2022-10-17T20:50:50.354Z,99910
2022-10-17T20:52:56.447Z,99910
2022-10-17T20:54:49.942Z,99910
2022-10-17T20:56:50.090Z,99910
2022-10-17T20:58:51.921Z,99920
2022-10-17T21:00:50.230Z,99920
2022-10-17T21:02:50.536Z,99920
2022-10-17T21:04:50.654Z,99920
2022-10-17T21:06:51.085Z,99920
2022-10-17T21:08:52.855Z,99930
2022-10-17T21:10:50.866Z,99930
2022-10-17T21:12:54.221Z,99930
2022-10-17T21:14:51.085Z,99930
2022-10-17T21:16:51.623Z,99930
2022-10-17T21:18:51.975Z,99930
2022-10-17T21:20:51.408Z,99930
2022-10-17T21:22:51.522Z,99940
2022-10-17T21:24:51.634Z,99940
2022-10-17T21:26:51.783Z,99940
2022-10-17T21:28:52.284Z,99940
2022-10-17T21:30:51.908Z,99940
2022-10-17T21:32:53.919Z,99940
2022-10-17T21:34:52.115Z,99940
2022-10-17T21:36:52.433Z,99940
2022-10-17T21:38:54.246Z,99940
2022-10-17T21:40:55.244Z,99940
2022-10-17T21:42:52.653Z,99940
2022-10-17T21:44:52.817Z,99940
2022-10-17T21:46:54.143Z,99940
2022-10-17T21:48:53.420Z,99940
2022-10-17T21:50:56.893Z,99940
2022-10-17T21:52:53.261Z,99940
2022-10-17T21:54:53.360Z,99940
2022-10-17T21:56:53.298Z,99940
2022-10-17T21:58:54.233Z,99940
2022-10-17T22:00:53.659Z,99940
2022-10-17T22:02:53.652Z,99940
2022-10-17T22:04:53.727Z,99940
2022-10-17T22:06:53.779Z,99940
2022-10-17T22:08:54.765Z,99940
2022-10-17T22:10:54.178Z,99940
2022-10-17T22:12:54.088Z,99940
2022-10-17T22:14:54.126Z,99940
2022-10-17T22:16:54.637Z,99940
2022-10-17T22:18:56.061Z,99940
2022-10-17T22:20:54.598Z,99940
2022-10-17T22:22:54.604Z,99940
2022-10-17T22:24:54.652Z,99940
2022-10-17T22:26:54.748Z,99940
2022-10-17T22:28:55.446Z,99940
2022-10-17T22:30:55.303Z,99940
2022-10-17T22:32:54.918Z,99940
2022-10-17T22:34:54.991Z,99940
2022-10-17T22:36:55.110Z,99940
2022-10-17T22:38:55.186Z,99940
2022-10-17T22:40:55.435Z,99940
2022-10-17T22:42:55.928Z,99940
2022-10-17T22:44:55.743Z,99940
2022-10-17T22:46:55.666Z,99940
2022-10-17T22:48:55.691Z,99940
2022-10-17T22:50:57.306Z,99930
2022-10-17T22:52:55.947Z,99920
2022-10-17T22:54:56.098Z,99920
2022-10-17T22:56:56.173Z,99920
2022-10-17T22:58:56.163Z,99910
2022-10-17T23:00:57.736Z,99910
2022-10-17T23:02:56.450Z,99910
2022-10-17T23:04:56.468Z,99910
2022-10-17T23:06:56.559Z,99910
2022-10-17T23:08:56.770Z,99910
2022-10-17T23:10:57.330Z,99910
2022-10-17T23:12:56.960Z,99910
2022-10-17T23:14:57.064Z,99910
2022-10-17T23:16:57.207Z,99920
2022-10-17T23:18:57.500Z,99920
2022-10-17T23:20:57.564Z,99920
2022-10-17T23:22:57.830Z,99920
2022-10-17T23:24:57.665Z,99920
2022-10-17T23:26:57.941Z,99920
2022-10-17T23:28:57.945Z,99920
2022-10-17T23:30:58.141Z,99920
2022-10-17T23:32:58.487Z,99920
2022-10-17T23:34:58.380Z,99920
2022-10-17T23:36:58.360Z,99920
2022-10-17T23:38:58.753Z,99920
2022-10-17T23:40:58.574Z,99920
2022-10-17T23:42:58.665Z,99910
2022-10-17T23:44:58.904Z,99910
2022-10-17T23:46:58.916Z,99910
2022-10-17T23:48:59.107Z,99900
2022-10-17T23:50:59.433Z,99900
2022-10-17T23:52:59.315Z,99900
2022-10-17T23:54:59.596Z,99900
2022-10-17T23:56:59.624Z,99890
2022-10-17T23:58:59.741Z,99890
